Time;durP1;ratioP1;P1;durP2;ratioP2;P2;SDS_P1;SDS_P2;PMS_P1;PMS_P2;Temp;Humidity;BMP_temperature;BMP_pressure;BME280_temperature;BME280_humidity;BME280_pressure;Samples;Min_cycle;Max_cycle;Signal;HPM_P1;HPM_P2
2021/05/09 00:01:21;;;;;;;5.68;4.05;;;11.90;99.90;;;;;;5034462;28;20550;-80
2021/05/09 00:03:47;;;;;;;6.03;4.25;;;15.60;99.90;;;;;;5032629;28;20028;-82
2021/05/09 00:06:14;;;;;;;5.82;3.90;;;11.80;99.90;;;;;;5030249;28;20037;-83
2021/05/09 00:08:39;;;;;;;6.07;3.72;;;12.00;99.90;;;;;;5041116;28;20144;-83
2021/05/09 00:11:05;;;;;;;6.80;3.90;;;11.80;99.90;;;;;;5055425;28;20053;-82
2021/05/09 00:13:31;;;;;;;6.00;3.80;;;11.80;99.90;;;;;;5039290;28;20593;-84
2021/05/09 00:15:58;;;;;;;5.70;3.63;;;11.80;99.90;;;;;;5037165;28;20052;-82
2021/05/09 00:18:24;;;;;;;5.35;3.38;;;15.30;99.90;;;;;;5040297;28;20021;-83
2021/05/09 00:20:50;;;;;;;5.13;3.20;;;;;;;;;;5040794;28;20164;-84
2021/05/09 00:23:17;;;;;;;6.43;3.55;;;11.80;99.90;;;;;;5037448;28;20026;-84
2021/05/09 00:25:43;;;;;;;4.82;3.22;;;14.80;99.90;;;;;;5049749;28;20169;-84
2021/05/09 00:28:09;;;;;;;5.88;3.58;;;11.70;99.90;;;;;;5047105;28;20032;-81
2021/05/09 00:30:34;;;;;;;4.43;3.25;;;11.70;99.90;;;;;;5035302;28;20025;-83
2021/05/09 00:33:00;;;;;;;5.63;3.50;;;;;;;;;;5038493;28;20124;-83
2021/05/09 00:35:26;;;;;;;5.45;3.65;;;;;;;;;;5032921;28;22598;-83
2021/05/09 00:37:52;;;;;;;5.57;3.55;;;13.30;99.90;;;;;;5032882;28;20032;-83
2021/05/09 00:40:18;;;;;;;6.47;3.80;;;11.60;99.90;;;;;;5046401;28;20022;-84
2021/05/09 00:42:44;;;;;;;5.45;4.05;;;;;;;;;;5055992;28;20021;-85
2021/05/09 00:45:12;;;;;;;7.85;4.03;;;11.60;99.90;;;;;;5045478;28;20032;-85
2021/05/09 00:47:38;;;;;;;6.10;4.25;;;11.50;99.90;;;;;;5040939;28;20542;-86
2021/05/09 00:50:05;;;;;;;5.43;3.58;;;14.20;99.90;;;;;;5042020;28;20029;-82
2021/05/09 00:52:38;;;;;;;6.93;3.92;;;11.50;99.90;;;;;;5038419;28;20021;-81
2021/05/09 00:55:07;;;;;;;4.88;3.55;;;11.40;99.90;;;;;;5052702;28;20060;-85
2021/05/09 00:57:35;;;;;;;6.50;3.58;;;11.40;99.90;;;;;;5044142;28;20037;-83
2021/05/09 01:00:05;;;;;;;4.43;3.22;;;11.40;99.90;;;;;;5036867;28;20029;-84
2021/05/09 01:02:30;;;;;;;5.32;3.67;;;11.40;99.90;;;;;;5037129;28;20039;-85
2021/05/09 01:04:56;;;;;;;6.82;4.22;;;11.40;99.90;;;;;;5040126;28;20021;-83
2021/05/09 01:07:22;;;;;;;4.15;3.08;;;11.30;99.90;;;;;;5055322;28;20047;-81
2021/05/09 01:09:48;;;;;;;5.35;3.67;;;;;;;;;;5032179;28;20028;-84
2021/05/09 01:12:15;;;;;;;5.47;3.75;;;11.30;99.90;;;;;;5042098;28;20068;-85
2021/05/09 01:14:41;;;;;;;9.35;3.65;;;11.30;99.90;;;;;;5041059;28;20491;-81
2021/05/09 01:17:08;;;;;;;7.00;3.70;;;11.30;99.90;;;;;;5051343;28;20024;-86
2021/05/09 01:19:35;;;;;;;5.47;3.92;;;11.20;99.90;;;;;;5016353;28;20102;-84
2021/05/09 01:22:01;;;;;;;6.50;4.10;;;11.20;99.90;;;;;;5026282;28;20029;-83
2021/05/09 01:24:26;;;;;;;7.40;4.03;;;;;;;;;;5028765;28;20387;-83
2021/05/09 01:26:53;;;;;;;7.80;4.43;;;;;;;;;;5035385;28;20270;-82
2021/05/09 01:29:18;;;;;;;7.03;3.95;;;11.10;99.90;;;;;;5036064;28;20229;-85
2021/05/09 01:31:48;;;;;;;6.72;3.80;;;11.10;99.90;;;;;;5051514;28;20041;-83
2021/05/09 01:34:14;;;;;;;6.68;3.88;;;11.10;99.90;;;;;;5036631;28;20025;-80
2021/05/09 01:36:39;;;;;;;6.43;3.78;;;11.70;99.90;;;;;;5036610;28;20104;-79
2021/05/09 01:39:06;;;;;;;5.78;3.60;;;14.90;99.90;;;;;;5031924;28;20052;-79
2021/05/09 01:41:32;;;;;;;7.05;4.10;;;11.10;99.90;;;;;;5039729;28;20031;-83
2021/05/09 01:43:58;;;;;;;6.43;4.22;;;11.20;99.90;;;;;;5036826;28;20432;-84
2021/05/09 01:46:24;;;;;;;6.43;3.72;;;14.50;99.90;;;;;;5030993;28;20044;-85
2021/05/09 01:48:50;;;;;;;5.47;3.60;;;11.10;99.90;;;;;;5028757;28;20049;-82
2021/05/09 01:51:16;;;;;;;5.45;3.72;;;;;;;;;;5038270;28;20033;-82
2021/05/09 01:53:41;;;;;;;6.93;4.07;;;11.00;99.90;;;;;;5032419;28;20052;-84
2021/05/09 01:56:07;;;;;;;5.80;3.30;;;11.10;99.90;;;;;;5051945;28;20447;-86
2021/05/09 01:58:33;;;;;;;4.50;3.13;;;;;;;;;;5041690;28;20036;-83
2021/05/09 02:00:59;;;;;;;5.53;2.92;;;;;;;;;;5035175;28;20033;-86
2021/05/09 02:03:24;;;;;;;5.30;3.28;;;11.10;99.90;;;;;;5038895;28;20066;-86
2021/05/09 02:05:50;;;;;;;3.92;3.00;;;;;;;;;;5034513;28;20025;-81
2021/05/09 02:08:16;;;;;;;6.47;3.50;;;11.00;99.90;;;;;;5053910;28;20025;-80
2021/05/09 02:10:42;;;;;;;5.22;3.83;;;;;;;;;;5040150;28;20532;-80
2021/05/09 02:13:08;;;;;;;4.53;3.10;;;9.20;99.90;;;;;;5052081;28;20143;-82
2021/05/09 02:15:33;;;;;;;4.68;3.08;;;12.70;99.90;;;;;;5050290;28;20041;-83
2021/05/09 02:17:59;;;;;;;4.97;3.15;;;10.90;99.90;;;;;;5037281;28;20022;-83
2021/05/09 02:20:25;;;;;;;4.22;3.08;;;11.60;99.90;;;;;;5037803;28;20025;-81
2021/05/09 02:22:50;;;;;;;4.88;3.20;;;10.90;99.90;;;;;;5043970;28;20021;-84
2021/05/09 02:25:16;;;;;;;4.88;3.28;;;10.90;99.90;;;;;;5031112;28;20256;-85
2021/05/09 02:27:42;;;;;;;12.13;3.30;;;;;;;;;;5038895;28;20060;-83
2021/05/09 02:30:08;;;;;;;4.70;3.10;;;10.90;99.90;;;;;;5036463;28;20024;-84
2021/05/09 02:32:34;;;;;;;5.88;3.50;;;10.90;99.90;;;;;;5049505;28;20501;-86
2021/05/09 02:35:00;;;;;;;5.10;3.40;;;10.80;99.90;;;;;;5034596;28;20133;-86
2021/05/09 02:37:26;;;;;;;3.90;2.80;;;10.90;99.90;;;;;;5052753;28;20475;-81
2021/05/09 02:39:52;;;;;;;5.57;3.08;;;;;;;;;;5032616;28;20128;-82
2021/05/09 02:42:18;;;;;;;4.40;3.00;;;;;;;;;;5034405;28;20455;-79
2021/05/09 02:44:44;;;;;;;5.40;3.15;;;10.80;99.90;;;;;;5052739;28;20473;-82
2021/05/09 02:47:10;;;;;;;6.10;3.42;;;;;;;;;;5038366;28;20025;-82
2021/05/09 02:49:36;;;;;;;6.45;3.30;;;10.80;99.90;;;;;;5052319;28;20541;-82
2021/05/09 02:52:02;;;;;;;3.63;2.83;;;10.80;99.90;;;;;;5036434;28;20032;-83
2021/05/09 02:54:28;;;;;;;4.82;3.25;;;10.80;99.90;;;;;;5057219;28;20052;-83
2021/05/09 02:56:54;;;;;;;6.05;3.35;;;10.70;99.90;;;;;;5038552;28;20039;-83
2021/05/09 02:59:19;;;;;;;5.55;3.33;;;10.80;99.90;;;;;;5033278;28;20021;-82
2021/05/09 03:01:45;;;;;;;5.90;3.42;;;;;;;;;;5058823;28;20047;-82
2021/05/09 03:04:11;;;;;;;6.78;3.25;;;10.70;99.90;;;;;;5036961;28;20134;-83
2021/05/09 03:06:37;;;;;;;5.40;3.25;;;11.60;99.90;;;;;;5039441;28;20442;-85
2021/05/09 03:09:03;;;;;;;4.70;3.33;;;10.70;99.90;;;;;;5039512;28;20037;-81
2021/05/09 03:11:29;;;;;;;4.78;3.30;;;10.60;99.90;;;;;;5048056;28;20091;-83
2021/05/09 03:13:56;;;;;;;5.45;3.35;;;10.60;99.90;;;;;;5053145;28;20491;-79
2021/05/09 03:16:22;;;;;;;5.88;3.47;;;;;;;;;;5040536;28;20033;-84
2021/05/09 03:18:48;;;;;;;5.10;3.13;;;;;;;;;;5050076;28;20025;-83
2021/05/09 03:21:14;;;;;;;5.28;3.63;;;10.60;99.90;;;;;;5039114;28;20029;-81
2021/05/09 03:23:41;;;;;;;5.90;3.53;;;10.60;99.90;;;;;;5041695;28;20327;-83
2021/05/09 03:26:06;;;;;;;5.47;3.08;;;10.50;99.90;;;;;;5052531;28;20032;-82
2021/05/09 03:28:32;;;;;;;6.43;3.08;;;;;;;;;;5044643;28;20074;-83
2021/05/09 03:30:58;;;;;;;5.18;2.72;;;10.60;99.90;;;;;;5039307;28;20037;-85
2021/05/09 03:33:24;;;;;;;4.55;3.05;;;;;;;;;;5060520;28;20033;-80
2021/05/09 03:35:50;;;;;;;5.47;2.95;;;;;;;;;;5048520;28;20021;-84
2021/05/09 03:38:16;;;;;;;6.18;3.25;;;;;;;;;;5040540;28;20044;-81
2021/05/09 03:40:42;;;;;;;5.57;3.10;;;10.60;99.90;;;;;;5039102;28;20052;-82
2021/05/09 03:43:08;;;;;;;6.20;3.85;;;;;;;;;;5042937;28;20017;-82
2021/05/09 03:45:34;;;;;;;5.93;3.63;;;10.60;99.90;;;;;;5043358;28;20025;-86
2021/05/09 03:48:00;;;;;;;5.18;3.28;;;;;;;;;;5057124;28;20093;-81
2021/05/09 03:50:28;;;;;;;5.65;3.38;;;;;;;;;;5042473;28;20025;-84
2021/05/09 03:52:54;;;;;;;5.82;3.50;;;;;;;;;;5041403;28;20037;-81
2021/05/09 03:55:20;;;;;;;4.72;3.72;;;;;;;;;;5039107;28;20045;-83
2021/05/09 03:57:46;;;;;;;6.13;4.05;;;;;;;;;;5036767;28;20048;-83
2021/05/09 04:00:12;;;;;;;4.55;3.85;;;10.50;99.90;;;;;;5033752;28;20088;-84
2021/05/09 04:02:40;;;;;;;6.20;4.05;;;10.40;99.90;;;;;;5058955;28;20025;-84
2021/05/09 04:05:09;;;;;;;5.68;3.67;;;10.40;99.90;;;;;;5053656;28;20036;-81
2021/05/09 04:07:35;;;;;;;6.10;3.40;;;10.40;99.90;;;;;;5056721;28;20025;-85
2021/05/09 04:10:01;;;;;;;7.95;4.82;;;;;;;;;;5036583;28;20039;-85
2021/05/09 04:12:27;;;;;;;5.68;3.78;;;;;;;;;;5044501;28;20033;-82
2021/05/09 04:14:52;;;;;;;6.50;3.92;;;10.30;99.90;;;;;;5035067;28;20340;-84
2021/05/09 04:17:18;;;;;;;5.13;4.00;;;10.20;99.90;;;;;;5039861;28;20495;-82
2021/05/09 04:19:43;;;;;;;8.80;3.88;;;10.30;99.90;;;;;;5043228;28;20534;-83
2021/05/09 04:22:09;;;;;;;4.78;3.42;;;10.30;99.90;;;;;;5037189;28;20033;-82
2021/05/09 04:24:34;;;;;;;5.03;3.85;;;10.30;99.90;;;;;;5050968;28;20028;-82
2021/05/09 04:27:00;;;;;;;5.90;3.65;;;;;;;;;;5036333;28;20079;-84
2021/05/09 04:29:26;;;;;;;5.65;4.00;;;10.40;99.90;;;;;;5042305;28;20029;-80
2021/05/09 04:31:52;;;;;;;7.55;4.10;;;10.40;99.90;;;;;;5034761;28;20082;-83
2021/05/09 04:34:17;;;;;;;6.20;3.97;;;10.40;99.90;;;;;;5034382;28;20037;-86
2021/05/09 04:36:45;;;;;;;6.45;4.15;;;10.30;99.90;;;;;;5040592;28;20475;-81
2021/05/09 04:39:11;;;;;;;7.20;4.25;;;10.30;99.90;;;;;;5051074;28;20036;-82
2021/05/09 04:41:37;;;;;;;6.63;3.85;;;;;;;;;;5033754;28;20048;-84
2021/05/09 04:44:03;;;;;;;6.50;4.20;;;10.30;99.90;;;;;;5049699;28;20056;-81
2021/05/09 04:46:29;;;;;;;5.97;3.78;;;10.20;99.90;;;;;;5036721;28;20055;-84
2021/05/09 04:48:55;;;;;;;7.10;3.78;;;;;;;;;;5032981;28;20029;-83
2021/05/09 04:51:21;;;;;;;6.25;3.80;;;10.10;99.90;;;;;;5052297;28;20037;-83
2021/05/09 04:53:46;;;;;;;6.68;4.50;;;10.10;99.90;;;;;;5056783;28;20044;-84
2021/05/09 04:56:12;;;;;;;6.50;3.85;;;12.40;99.90;;;;;;5035904;28;20055;-84
2021/05/09 04:58:40;;;;;;;6.43;4.28;;;10.20;99.90;;;;;;5037925;28;20074;-85
2021/05/09 05:01:08;;;;;;;5.55;4.10;;;10.20;99.90;;;;;;5033361;28;20017;-85
2021/05/09 05:03:35;;;;;;;6.93;4.13;;;10.30;99.90;;;;;;5057845;28;20017;-83
2021/05/09 05:06:02;;;;;;;7.03;4.00;;;9.80;99.90;;;;;;5032480;28;20057;-84
2021/05/09 05:08:31;;;;;;;7.05;3.70;;;10.90;99.90;;;;;;5034778;28;20091;-84
2021/05/09 05:10:56;;;;;;;5.88;4.07;;;13.30;99.90;;;;;;5054959;28;20041;-86
2021/05/09 05:13:31;;;;;;;4.95;3.70;;;10.60;99.90;;;;;;5053039;28;20076;-85
2021/05/09 05:15:59;;;;;;;6.28;4.15;;;10.60;99.90;;;;;;5036242;28;20097;-82
2021/05/09 05:18:25;;;;;;;5.82;3.53;;;10.70;99.90;;;;;;5047437;28;20032;-83
2021/05/09 05:20:52;;;;;;;5.72;3.65;;;10.60;99.90;;;;;;5019530;28;20114;-83
2021/05/09 05:23:18;;;;;;;5.18;3.88;;;10.90;99.90;;;;;;5035195;28;20029;-82
2021/05/09 05:25:44;;;;;;;6.38;3.90;;;10.90;99.90;;;;;;5036066;28;20052;-82
2021/05/09 05:28:10;;;;;;;5.60;4.00;;;14.50;99.90;;;;;;5036240;28;20403;-83
2021/05/09 05:30:37;;;;;;;6.68;3.45;;;12.10;99.90;;;;;;5046203;28;20036;-85
2021/05/09 05:33:03;;;;;;;6.45;3.40;;;14.10;99.10;;;;;;5039347;28;20085;-83
2021/05/09 05:35:29;;;;;;;4.85;3.20;;;14.20;99.30;;;;;;5043422;28;20021;-86
2021/05/09 05:37:55;;;;;;;5.20;3.17;;;16.70;98.30;;;;;;5053134;28;20515;-82
2021/05/09 05:40:23;;;;;;;4.13;3.13;;;15.80;96.30;;;;;;5033072;28;20033;-80
2021/05/09 05:42:49;;;;;;;4.45;3.13;;;16.60;94.10;;;;;;5038258;28;20029;-82
2021/05/09 05:45:15;;;;;;;4.18;2.67;;;18.80;94.70;;;;;;5037756;28;20021;-83
2021/05/09 05:47:40;;;;;;;7.88;5.43;;;17.10;92.50;;;;;;5035004;28;20055;-83
2021/05/09 05:50:07;;;;;;;6.38;3.22;;;16.80;92.70;;;;;;5036032;28;20029;-84
2021/05/09 05:52:33;;;;;;;6.85;2.92;;;;;;;;;;5039735;28;20009;-84
2021/05/09 05:54:59;;;;;;;4.78;3.05;;;17.50;91.80;;;;;;5043412;28;20099;-80
2021/05/09 05:57:25;;;;;;;4.63;3.10;;;;;;;;;;5039847;28;20460;-84
2021/05/09 05:59:50;;;;;;;3.95;2.85;;;17.70;90.90;;;;;;5053516;28;20035;-83
2021/05/09 06:02:16;;;;;;;6.05;2.67;;;17.70;91.20;;;;;;5037771;28;20017;-84
2021/05/09 06:04:42;;;;;;;5.40;2.70;;;;;;;;;;5033112;28;20093;-83
2021/05/09 06:07:12;;;;;;;4.68;2.80;;;17.60;92.30;;;;;;5063073;28;20072;-83
2021/05/09 06:09:38;;;;;;;5.97;2.88;;;;;;;;;;5039281;28;20056;-81
2021/05/09 06:12:06;;;;;;;5.72;3.05;;;16.90;94.00;;;;;;5032234;28;20116;-84
2021/05/09 06:14:32;;;;;;;4.13;2.67;;;;;;;;;;5034613;28;20032;-80
2021/05/09 06:16:57;;;;;;;4.65;2.58;;;16.90;94.60;;;;;;5054804;28;20040;-82
2021/05/09 06:19:23;;;;;;;5.18;2.80;;;16.80;95.30;;;;;;5050388;28;20040;-83
2021/05/09 06:21:49;;;;;;;5.75;2.70;;;;;;;;;;5035155;28;20021;-83
2021/05/09 06:24:15;;;;;;;3.88;2.53;;;16.70;96.10;;;;;;5049332;28;20575;-81
2021/05/09 06:26:41;;;;;;;4.80;2.33;;;;;;;;;;5035557;28;20049;-83
2021/05/09 06:29:07;;;;;;;3.03;1.90;;;;;;;;;;5060753;28;20033;-80
2021/05/09 06:31:33;;;;;;;4.10;2.42;;;;;;;;;;5045457;28;20033;-83
2021/05/09 06:33:59;;;;;;;4.45;2.10;;;;;;;;;;5041308;28;20048;-80
2021/05/09 06:36:25;;;;;;;5.15;2.08;;;;;;;;;;5055197;28;20029;-84
2021/05/09 06:38:51;;;;;;;3.67;2.38;;;;;;;;;;5045077;28;20035;-82
2021/05/09 06:41:20;;;;;;;5.53;3.05;;;17.10;96.50;;;;;;5050261;28;20045;-83
2021/05/09 06:43:46;;;;;;;3.33;2.40;;;19.10;97.00;;;;;;5035031;28;20021;-83
2021/05/09 06:46:12;;;;;;;5.55;1.90;;;;;;;;;;5039003;28;20033;-83
2021/05/09 06:48:38;;;;;;;5.88;2.15;;;;;;;;;;5044801;28;20062;-84
2021/05/09 06:51:05;;;;;;;5.30;2.10;;;17.40;96.30;;;;;;5042329;28;20026;-83
2021/05/09 06:53:31;;;;;;;4.95;2.30;;;;;;;;;;5039293;28;20025;-83
2021/05/09 06:55:58;;;;;;;4.78;2.28;;;17.60;96.20;;;;;;5047671;28;20028;-85
2021/05/09 06:58:24;;;;;;;4.95;2.10;;;;;;;;;;5054892;28;20116;-84
2021/05/09 07:00:51;;;;;;;3.47;1.90;;;;;;;;;;5035460;28;20089;-84
2021/05/09 07:03:17;;;;;;;5.15;2.20;;;17.80;95.80;;;;;;5039543;28;20031;-84
2021/05/09 07:05:46;;;;;;;3.17;1.88;;;18.00;95.50;;;;;;5041850;28;20029;-83
2021/05/09 07:08:11;;;;;;;3.30;2.13;;;18.00;95.50;;;;;;5042468;28;20045;-82
2021/05/09 07:10:38;;;;;;;5.13;2.25;;;;;;;;;;5043493;28;20025;-83
2021/05/09 07:13:04;;;;;;;3.70;1.90;;;18.40;94.60;;;;;;5039113;28;20076;-83
2021/05/09 07:15:36;;;;;;;5.55;2.10;;;18.50;94.80;;;;;;5041401;28;20025;-85
2021/05/09 07:18:11;;;;;;;3.42;1.80;;;20.60;94.80;;;;;;5041167;28;20059;-80
2021/05/09 07:20:41;;;;;;;3.03;1.80;;;;;;;;;;5068800;28;20017;-86
2021/05/09 07:23:07;;;;;;;;;;;19.10;93.00;;;;;;5046397;28;20072;-84
2021/05/09 07:25:34;;;;;;;5.15;2.20;;;19.20;93.20;;;;;;5067114;28;20306;-81
2021/05/09 07:28:11;;;;;;;4.20;2.00;;;19.30;92.80;;;;;;5049156;28;20082;-84
2021/05/09 07:30:38;;;;;;;3.60;2.08;;;19.50;91.90;;;;;;5049099;28;20087;-79
2021/05/09 07:33:04;;;;;;;3.20;1.70;;;19.70;91.50;;;;;;5067040;28;20029;-80
2021/05/09 07:35:31;;;;;;;3.25;2.10;;;;;;;;;;5036667;28;20044;-84
2021/05/09 07:38:01;;;;;;;6.18;2.22;;;20.00;91.00;;;;;;5052665;28;20051;-81
2021/05/09 07:40:27;;;;;;;2.88;1.73;;;20.00;91.20;;;;;;5038719;28;20132;-81
2021/05/09 07:42:52;;;;;;;5.00;1.80;;;20.20;90.40;;;;;;5046316;28;20042;-80
2021/05/09 07:45:21;;;;;;;2.90;1.90;;;20.50;90.70;;;;;;5055220;28;20096;-80
2021/05/09 07:47:47;;;;;;;2.85;1.70;;;;;;;;;;5049065;28;20032;-82
2021/05/09 07:50:14;;;;;;;6.03;2.30;;;20.50;89.50;;;;;;5056702;28;20029;-80
2021/05/09 07:52:40;;;;;;;3.03;1.70;;;;;;;;;;5043564;28;20052;-85
2021/05/09 07:55:06;;;;;;;4.18;2.35;;;20.60;87.70;;;;;;5060918;28;20024;-81
2021/05/09 07:57:33;;;;;;;2.88;1.80;;;;;;;;;;5040869;28;20068;-81
2021/05/09 07:59:59;;;;;;;4.05;1.95;;;;;;;;;;5042291;28;20574;-82
2021/05/09 08:02:24;;;;;;;3.85;2.00;;;21.20;84.70;;;;;;5047951;28;20017;-80
2021/05/09 08:04:50;;;;;;;5.32;1.90;;;21.30;84.10;;;;;;5047227;28;20049;-83
2021/05/09 08:07:15;;;;;;;3.05;1.88;;;21.50;83.00;;;;;;5046317;28;20439;-82
2021/05/09 08:09:41;;;;;;;3.22;1.52;;;21.50;83.70;;;;;;5040701;28;20087;-82
2021/05/09 08:12:07;;;;;;;7.10;1.85;;;21.60;82.50;;;;;;5063455;28;20025;-78
2021/05/09 08:14:33;;;;;;;2.88;1.98;;;;;;;;;;5069782;28;20044;-82
2021/05/09 08:16:59;;;;;;;4.30;1.95;;;21.90;80.30;;;;;;5064914;28;20040;-81
2021/05/09 08:19:25;;;;;;;4.65;1.70;;;;;;;;;;5051964;28;20017;-83
2021/05/09 08:21:50;;;;;;;3.75;1.70;;;22.20;78.50;;;;;;5055305;28;20036;-84
2021/05/09 08:24:19;;;;;;;3.38;2.08;;;;;;;;;;5056186;28;20024;-82
2021/05/09 08:26:45;;;;;;;3.90;1.73;;;;;;;;;;5059076;28;20502;-82
2021/05/09 08:29:11;;;;;;;4.03;1.55;;;22.40;75.60;;;;;;5062784;28;20029;-83
2021/05/09 08:31:37;;;;;;;5.82;1.90;;;22.40;75.20;;;;;;5068760;28;20029;-80
2021/05/09 08:34:03;;;;;;;6.25;1.75;;;22.40;74.80;;;;;;5058283;28;20056;-83
2021/05/09 08:36:29;;;;;;;3.03;1.58;;;22.60;75.00;;;;;;5058153;28;20056;-82
2021/05/09 08:38:55;;;;;;;3.15;1.45;;;22.70;73.20;;;;;;5044632;28;20021;-81
2021/05/09 08:41:22;;;;;;;2.00;1.40;;;22.80;73.40;;;;;;5045191;28;20021;-83
2021/05/09 08:43:48;;;;;;;2.30;1.48;;;;;;;;;;5056085;28;20025;-81
2021/05/09 08:46:14;;;;;;;2.97;1.70;;;;;;;;;;5061504;28;20033;-80
2021/05/09 08:48:40;;;;;;;2.22;1.52;;;23.30;70.60;;;;;;5042656;28;20088;-84
2021/05/09 08:51:06;;;;;;;2.55;1.50;;;;;;;;;;5061979;28;20033;-83
2021/05/09 08:53:33;;;;;;;7.38;1.50;;;23.30;68.30;;;;;;5041046;28;20029;-80
2021/05/09 08:55:59;;;;;;;3.65;1.70;;;;;;;;;;5062658;28;20036;-84
2021/05/09 08:58:25;;;;;;;4.03;1.90;;;23.40;68.10;;;;;;5038796;28;20072;-80
2021/05/09 09:00:51;;;;;;;4.93;1.50;;;;;;;;;;5048494;28;20026;-81
2021/05/09 09:03:17;;;;;;;4.57;1.70;;;23.60;65.30;;;;;;5056502;28;20081;-81
2021/05/09 09:05:45;;;;;;;3.97;1.45;;;23.60;65.60;;;;;;5050446;28;20049;-81
2021/05/09 09:08:14;;;;;;;7.05;1.40;;;23.90;63.60;;;;;;5074732;28;20048;-81
2021/05/09 09:10:53;;;;;;;7.20;1.73;;;24.10;62.90;;;;;;5066214;28;20017;-80
2021/05/09 09:13:20;;;;;;;3.63;1.67;;;24.10;62.10;;;;;;5056185;28;20048;-83
2021/05/09 09:16:05;;;;;;;2.72;1.60;;;24.00;60.80;;;;;;5056446;28;20049;-81
2021/05/09 09:18:39;;;;;;;4.47;1.40;;;24.00;61.20;;;;;;5046375;28;20061;-79
2021/05/09 09:21:24;;;;;;;2.50;1.30;;;;;;;;;;5054238;28;20020;-82
2021/05/09 09:24:06;;;;;;;3.22;1.30;;;24.00;59.00;;;;;;5055955;28;20032;-84
2021/05/09 09:26:42;;;;;;;2.60;1.45;;;24.00;59.40;;;;;;5056689;28;20024;-82
2021/05/09 09:29:24;;;;;;;3.28;1.63;;;23.90;59.40;;;;;;5063470;28;20047;-84
2021/05/09 09:32:02;;;;;;;3.63;1.30;;;24.00;59.20;;;;;;5058668;28;20056;-84
2021/05/09 09:34:39;;;;;;;2.10;1.40;;;24.20;59.10;;;;;;5046534;28;20100;-81
2021/05/09 09:37:06;;;;;;;3.90;1.83;;;;;;;;;;5043427;28;20029;-83
2021/05/09 09:39:59;;;;;;;2.72;1.45;;;24.70;56.50;;;;;;5048306;28;20025;-82
2021/05/09 09:42:37;;;;;;;2.90;1.50;;;;;;;;;;5056853;28;20017;-84
2021/05/09 09:45:18;;;;;;;4.70;1.40;;;24.90;55.00;;;;;;5056278;28;20050;-83
2021/05/09 09:47:48;;;;;;;4.28;1.35;;;24.80;56.60;;;;;;5054151;28;20048;-84
2021/05/09 09:50:40;;;;;;;3.17;1.60;;;24.70;55.70;;;;;;5033176;28;20666;-83
2021/05/09 09:53:44;;;;;;;4.20;1.40;;;25.00;54.70;;;;;;5045078;28;20040;-81
2021/05/09 09:56:16;;;;;;;2.67;1.30;;;25.00;55.10;;;;;;5053064;28;20033;-84
2021/05/09 09:58:58;;;;;;;4.03;1.50;;;25.10;54.30;;;;;;5037273;28;20033;-84
2021/05/09 10:01:35;;;;;;;4.68;1.63;;;25.20;54.50;;;;;;5035517;28;20491;-82
2021/05/09 10:04:07;;;;;;;2.33;1.40;;;25.30;53.30;;;;;;5038053;28;20084;-84
2021/05/09 10:06:34;;;;;;;4.35;1.50;;;25.40;53.70;;;;;;5050038;28;21412;-83
2021/05/09 10:09:00;;;;;;;3.60;1.25;;;25.20;53.10;;;;;;5046880;28;20071;-84
2021/05/09 10:11:28;;;;;;;4.03;1.33;;;25.00;53.30;;;;;;5046547;28;20045;-83
2021/05/09 10:13:54;;;;;;;3.22;1.58;;;25.20;52.90;;;;;;5037099;28;20045;-84
2021/05/09 10:16:24;;;;;;;2.38;1.30;;;25.30;52.60;;;;;;5042361;28;20983;-82
2021/05/09 10:19:01;;;;;;;3.50;1.38;;;25.30;53.00;;;;;;5041053;28;20041;-80
2021/05/09 10:21:32;;;;;;;4.50;1.45;;;25.50;52.50;;;;;;5053378;28;20025;-82
2021/05/09 10:24:16;;;;;;;6.28;1.83;;;25.60;52.30;;;;;;5040314;28;20021;-81
2021/05/09 10:26:50;;;;;;;2.88;1.25;;;25.70;52.20;;;;;;5034246;28;20119;-85
2021/05/09 10:29:45;;;;;;;6.25;1.50;;;25.70;51.90;;;;;;5060489;28;20032;-83
2021/05/09 10:32:20;;;;;;;5.78;1.73;;;25.60;51.90;;;;;;5044200;28;20029;-84
2021/05/09 10:34:55;;;;;;;4.93;1.13;;;25.80;51.40;;;;;;5061346;28;20396;-82
2021/05/09 10:37:50;;;;;;;3.47;1.30;;;25.90;51.80;;;;;;5044747;28;20036;-83
2021/05/09 10:40:35;;;;;;;5.25;1.40;;;26.10;51.60;;;;;;5012908;28;20035;-82
2021/05/09 10:43:04;;;;;;;5.53;1.20;;;26.20;50.90;;;;;;5057772;28;20280;-84
2021/05/09 10:45:30;;;;;;;5.03;1.40;;;26.30;51.20;;;;;;5060824;28;20017;-84
2021/05/09 10:48:21;;;;;;;2.97;1.27;;;26.40;50.60;;;;;;5057221;28;20028;-83
2021/05/09 10:50:49;;;;;;;1.90;1.20;;;26.50;50.40;;;;;;5062129;28;20122;-83
2021/05/09 10:56:02;;;;;;;2.72;1.35;;;26.80;49.00;;;;;;5056808;28;20040;-83
2021/05/09 10:58:46;;;;;;;3.17;1.30;;;26.50;48.40;;;;;;5039272;28;20024;-82
2021/05/09 11:01:17;;;;;;;4.03;1.33;;;26.50;49.10;;;;;;5058575;28;20021;-82
2021/05/09 11:03:43;;;;;;;2.58;1.58;;;26.20;49.10;;;;;;5038251;28;20029;-82
2021/05/09 11:06:11;;;;;;;5.32;1.50;;;26.50;49.50;;;;;;5056876;28;20032;-82
2021/05/09 11:08:43;;;;;;;6.53;1.30;;;26.20;49.70;;;;;;5060013;28;20026;-80
2021/05/09 11:11:20;;;;;;;2.47;1.20;;;26.20;49.90;;;;;;5039721;28;20033;-84
2021/05/09 11:16:25;;;;;;;3.38;1.67;;;;;;;;;;5056374;28;20044;-82
2021/05/09 11:18:56;;;;;;;5.10;1.40;;;26.20;49.50;;;;;;5044863;28;20029;-78
2021/05/09 11:21:23;;;;;;;2.88;1.30;;;26.30;49.70;;;;;;5063464;28;20299;-82
2021/05/09 11:23:49;;;;;;;3.65;1.40;;;26.30;48.80;;;;;;5044415;28;20108;-81
2021/05/09 11:26:22;;;;;;;3.03;1.23;;;26.20;48.70;;;;;;5047529;28;20036;-82
2021/05/09 11:29:10;;;;;;;2.50;1.05;;;26.10;49.40;;;;;;5038845;28;20068;-84
2021/05/09 11:31:52;;;;;;;2.78;1.08;;;26.20;49.30;;;;;;5041972;28;20429;-83
2021/05/09 11:34:19;;;;;;;4.28;1.30;;;26.40;49.10;;;;;;5062413;28;20024;-83
2021/05/09 11:36:49;;;;;;;3.25;1.27;;;26.60;48.60;;;;;;5055184;28;20033;-84
2021/05/09 11:39:17;;;;;;;4.18;0.98;;;26.60;49.00;;;;;;5056300;28;20028;-83
2021/05/09 11:42:12;;;;;;;3.42;1.10;;;26.80;47.70;;;;;;5035038;28;20040;-83
2021/05/09 11:44:42;;;;;;;3.97;1.10;;;26.90;45.70;;;;;;5035730;28;20574;-82
2021/05/09 11:47:13;;;;;;;4.22;1.20;;;26.80;45.50;;;;;;5035198;28;20275;-82
2021/05/09 11:49:43;;;;;;;4.57;1.40;;;26.60;46.40;;;;;;5058228;28;20104;-82
2021/05/09 11:52:18;;;;;;;3.17;1.20;;;26.60;46.80;;;;;;5034636;28;20025;-82
2021/05/09 11:54:58;;;;;;;2.00;1.10;;;26.50;45.40;;;;;;5036228;28;20075;-83
2021/05/09 11:57:25;;;;;;;2.75;1.10;;;26.60;45.50;;;;;;5060773;28;20032;-85
2021/05/09 11:59:53;;;;;;;3.33;0.93;;;26.90;45.60;;;;;;5043109;28;20029;-82
2021/05/09 12:02:20;;;;;;;2.83;1.10;;;;;;;;;;5076282;28;20033;-87
2021/05/09 12:04:57;;;;;;;4.97;1.23;;;27.00;44.70;;;;;;5036312;28;20571;-83
2021/05/09 12:07:32;;;;;;;4.68;1.10;;;26.90;45.60;;;;;;5036067;28;20080;-82
2021/05/09 12:10:05;;;;;;;1.67;1.10;;;27.10;45.60;;;;;;5034146;28;20040;-84
2021/05/09 12:12:33;;;;;;;2.40;1.38;;;27.00;45.90;;;;;;5033226;28;20550;-81
2021/05/09 12:15:13;;;;;;;7.18;1.20;;;26.90;45.70;;;;;;5036200;28;20033;-84
2021/05/09 12:18:04;;;;;;;;;;;26.90;45.30;;;;;;5058776;28;20056;-84
2021/05/09 12:20:30;;;;;;;3.60;1.35;;;;;;;;;;5056357;28;19935;-80
2021/05/09 12:23:00;;;;;;;6.40;1.00;;;27.00;45.20;;;;;;5042618;28;20502;-82
2021/05/09 12:25:31;;;;;;;4.53;1.35;;;29.40;47.00;;;;;;5055685;28;20031;-80
2021/05/09 12:28:05;;;;;;;1.50;0.90;;;27.20;44.80;;;;;;5052715;28;20037;-83
2021/05/09 12:30:31;;;;;;;4.60;1.10;;;;;;;;;;5057914;28;20262;-83
2021/05/09 12:32:56;;;;;;;5.30;1.17;;;27.30;43.70;;;;;;5045835;28;20508;-83
2021/05/09 12:35:22;;;;;;;2.47;0.65;;;27.20;43.70;;;;;;5064301;28;20037;-83
2021/05/09 12:37:48;;;;;;;4.88;1.27;;;;;;;;;;5044280;28;20037;-81
2021/05/09 12:40:21;;;;;;;3.05;1.08;;;27.50;44.00;;;;;;5039735;28;20037;-84
2021/05/09 12:42:54;;;;;;;2.08;1.15;;;27.80;42.80;;;;;;5035399;28;20021;-83
2021/05/09 12:45:36;;;;;;;3.08;1.00;;;27.90;42.10;;;;;;5052368;28;20021;-84
2021/05/09 12:48:16;;;;;;;2.45;1.10;;;27.90;42.40;;;;;;5038935;28;20021;-83
2021/05/09 12:50:50;;;;;;;3.22;1.10;;;27.70;41.80;;;;;;5033851;28;20040;-82
2021/05/09 12:53:35;;;;;;;2.42;1.13;;;27.40;41.20;;;;;;5036231;28;20547;-81
2021/05/09 12:56:26;;;;;;;4.15;1.05;;;27.30;41.80;;;;;;5052955;28;20037;-83
2021/05/09 12:59:23;;;;;;;4.55;1.20;;;27.20;41.90;;;;;;5051742;28;20036;-80
2021/05/09 13:01:59;;;;;;;3.58;1.30;;;27.20;42.00;;;;;;5032965;28;20101;-79
2021/05/09 13:04:35;;;;;;;2.65;0.98;;;27.50;41.30;;;;;;5028916;28;20384;-80
2021/05/09 13:07:04;;;;;;;2.25;1.02;;;27.50;42.10;;;;;;5043268;28;20380;-80
2021/05/09 13:09:31;;;;;;;1.52;0.90;;;27.60;41.60;;;;;;5053839;28;20024;-81
2021/05/09 13:12:04;;;;;;;5.00;1.23;;;27.40;40.50;;;;;;5032725;28;20186;-82
2021/05/09 13:14:50;;;;;;;2.20;1.00;;;27.40;40.60;;;;;;5047336;28;20090;-80
2021/05/09 13:17:17;;;;;;;3.75;1.00;;;27.40;40.20;;;;;;5028062;28;20021;-83
2021/05/09 13:19:43;;;;;;;2.58;0.90;;;27.40;40.30;;;;;;5018702;28;20037;-83
2021/05/09 13:22:10;;;;;;;3.30;1.08;;;27.40;39.90;;;;;;5029568;28;20059;-84
2021/05/09 13:24:36;;;;;;;2.22;0.90;;;27.40;40.00;;;;;;5036740;28;20027;-81
2021/05/09 13:27:03;;;;;;;3.47;1.10;;;27.30;40.30;;;;;;5010479;28;20038;-83